sensor_id;sensor_type;location;lat;lon;timestamp;noise_LAeq;noise_LA_min;noise_LA_max;noise_LA01;noise_LA95
46749;Laerm;33775;47.992;11.864;2023-08-01T00:02:19;37.26;33.44;39.81;;
46749;Laerm;33775;47.992;11.864;2023-08-01T00:04:44;37.28;33.44;40.13;;
46749;Laerm;33775;47.992;11.864;2023-08-01T00:07:09;37.30;33.44;39.81;;
46749;Laerm;33775;47.992;11.864;2023-08-01T00:09:34;37.32;32.93;39.92;;
46749;Laerm;33775;47.992;11.864;2023-08-01T00:12:00;37.31;32.93;40.03;;
46749;Laerm;33775;47.992;11.864;2023-08-01T00:14:25;37.31;32.93;40.13;;
46749;Laerm;33775;47.992;11.864;2023-08-01T00:16:50;37.31;33.44;40.23;;
46749;Laerm;33775;47.992;11.864;2023-08-01T00:19:16;37.30;33.90;40.23;;
46749;Laerm;33775;47.992;11.864;2023-08-01T00:21:41;37.31;33.44;40.33;;
46749;Laerm;33775;47.992;11.864;2023-08-01T00:24:06;37.31;32.93;39.92;;
46749;Laerm;33775;47.992;11.864;2023-08-01T00:26:33;37.32;32.93;39.92;;
46749;Laerm;33775;47.992;11.864;2023-08-01T00:28:58;37.32;32.93;40.13;;
46749;Laerm;33775;47.992;11.864;2023-08-01T00:31:23;37.31;32.93;39.81;;
46749;Laerm;33775;47.992;11.864;2023-08-01T00:33:48;37.35;32.35;40.03;;
46749;Laerm;33775;47.992;11.864;2023-08-01T00:36:13;37.34;33.90;40.03;;
46749;Laerm;33775;47.992;11.864;2023-08-01T00:38:39;37.33;33.44;40.03;;
46749;Laerm;33775;47.992;11.864;2023-08-01T00:41:04;37.32;33.44;40.23;;
46749;Laerm;33775;47.992;11.864;2023-08-01T00:43:29;37.31;32.93;39.81;;
46749;Laerm;33775;47.992;11.864;2023-08-01T00:45:56;37.33;33.44;40.03;;
46749;Laerm;33775;47.992;11.864;2023-08-01T00:48:23;37.32;32.35;39.92;;
46749;Laerm;33775;47.992;11.864;2023-08-01T00:50:48;37.30;32.35;39.81;;
46749;Laerm;33775;47.992;11.864;2023-08-01T00:53:13;37.32;32.93;40.03;;
46749;Laerm;33775;47.992;11.864;2023-08-01T00:55:39;37.32;32.93;40.33;;
46749;Laerm;33775;47.992;11.864;2023-08-01T00:58:04;37.31;33.44;40.33;;
46749;Laerm;33775;47.992;11.864;2023-08-01T01:00:29;37.28;32.35;40.13;;
46749;Laerm;33775;47.992;11.864;2023-08-01T01:02:55;37.31;31.68;40.03;;
46749;Laerm;33775;47.992;11.864;2023-08-01T01:05:20;37.29;32.93;40.13;;
46749;Laerm;33775;47.992;11.864;2023-08-01T01:07:47;37.32;32.93;39.81;;
46749;Laerm;33775;47.992;11.864;2023-08-01T01:10:13;37.30;32.93;39.92;;
46749;Laerm;33775;47.992;11.864;2023-08-01T01:12:38;37.29;32.93;40.03;;
46749;Laerm;33775;47.992;11.864;2023-08-01T01:15:03;37.30;33.44;40.03;;
46749;Laerm;33775;47.992;11.864;2023-08-01T01:17:30;37.33;32.35;40.43;;
46749;Laerm;33775;47.992;11.864;2023-08-01T01:19:55;37.31;33.44;39.92;;
46749;Laerm;33775;47.992;11.864;2023-08-01T01:22:20;37.32;32.35;40.13;;
46749;Laerm;33775;47.992;11.864;2023-08-01T01:24:46;37.30;32.93;40.13;;
46749;Laerm;33775;47.992;11.864;2023-08-01T01:27:12;37.33;33.44;40.03;;
46749;Laerm;33775;47.992;11.864;2023-08-01T01:29:38;37.31;32.93;39.92;;
46749;Laerm;33775;47.992;11.864;2023-08-01T01:32:04;37.36;33.90;40.13;;
46749;Laerm;33775;47.992;11.864;2023-08-01T01:34:31;37.33;33.44;40.03;;
46749;Laerm;33775;47.992;11.864;2023-08-01T01:36:56;37.29;32.35;40.03;;
46749;Laerm;33775;47.992;11.864;2023-08-01T01:39:21;37.30;32.93;40.13;;
46749;Laerm;33775;47.992;11.864;2023-08-01T01:41:46;37.25;32.93;40.03;;
46749;Laerm;33775;47.992;11.864;2023-08-01T01:44:11;37.27;33.44;40.23;;
46749;Laerm;33775;47.992;11.864;2023-08-01T01:46:37;37.27;32.35;40.53;;
46749;Laerm;33775;47.992;11.864;2023-08-01T01:49:02;37.27;32.93;40.13;;
46749;Laerm;33775;47.992;11.864;2023-08-01T01:51:27;37.25;31.68;40.13;;
46749;Laerm;33775;47.992;11.864;2023-08-01T01:53:53;37.20;32.93;39.70;;
46749;Laerm;33775;47.992;11.864;2023-08-01T01:56:18;37.21;33.44;40.03;;
46749;Laerm;33775;47.992;11.864;2023-08-01T01:58:43;37.80;31.68;65.08;;
46749;Laerm;33775;47.992;11.864;2023-08-01T02:01:08;37.15;31.68;40.43;;
46749;Laerm;33775;47.992;11.864;2023-08-01T02:03:34;37.22;32.35;39.92;;
46749;Laerm;33775;47.992;11.864;2023-08-01T02:05:59;37.19;33.44;40.13;;
46749;Laerm;33775;47.992;11.864;2023-08-01T02:08:24;37.17;32.35;40.53;;
46749;Laerm;33775;47.992;11.864;2023-08-01T02:10:49;37.15;31.68;40.23;;
46749;Laerm;33775;47.992;11.864;2023-08-01T02:13:14;37.13;32.93;40.13;;
46749;Laerm;33775;47.992;11.864;2023-08-01T02:15:40;37.14;32.35;39.70;;
46749;Laerm;33775;47.992;11.864;2023-08-01T02:18:05;37.12;32.35;39.92;;
46749;Laerm;33775;47.992;11.864;2023-08-01T02:20:30;37.13;32.35;40.03;;
46749;Laerm;33775;47.992;11.864;2023-08-01T02:22:56;37.13;32.93;40.03;;
46749;Laerm;33775;47.992;11.864;2023-08-01T02:25:21;37.12;32.35;39.78;;
46749;Laerm;33775;47.992;11.864;2023-08-01T02:27:46;37.11;30.89;39.92;;
46749;Laerm;33775;47.992;11.864;2023-08-01T02:30:12;37.24;32.93;40.13;;
46749;Laerm;33775;47.992;11.864;2023-08-01T02:32:37;37.37;30.89;40.23;;
46749;Laerm;33775;47.992;11.864;2023-08-01T02:35:02;37.43;32.93;39.92;;
46749;Laerm;33775;47.992;11.864;2023-08-01T02:37:27;37.44;32.35;40.23;;
46749;Laerm;33775;47.992;11.864;2023-08-01T02:39:52;37.45;32.35;53.38;;
46749;Laerm;33775;47.992;11.864;2023-08-01T02:42:17;37.41;32.35;40.53;;
46749;Laerm;33775;47.992;11.864;2023-08-01T02:44:43;37.39;33.44;39.92;;
46749;Laerm;33775;47.992;11.864;2023-08-01T02:47:08;37.37;33.44;40.03;;
46749;Laerm;33775;47.992;11.864;2023-08-01T02:49:33;37.29;32.93;40.23;;
46749;Laerm;33775;47.992;11.864;2023-08-01T02:51:58;37.26;33.44;40.03;;
46749;Laerm;33775;47.992;11.864;2023-08-01T02:54:24;37.18;32.35;40.03;;
46749;Laerm;33775;47.992;11.864;2023-08-01T02:56:49;37.19;32.93;39.92;;
46749;Laerm;33775;47.992;11.864;2023-08-01T02:59:14;37.23;32.93;40.03;;
46749;Laerm;33775;47.992;11.864;2023-08-01T03:01:39;37.24;32.93;40.53;;
46749;Laerm;33775;47.992;11.864;2023-08-01T03:04:05;37.25;31.68;39.81;;
46749;Laerm;33775;47.992;11.864;2023-08-01T03:06:31;37.28;32.93;40.23;;
46749;Laerm;33775;47.992;11.864;2023-08-01T03:08:56;37.28;32.35;39.70;;
46749;Laerm;33775;47.992;11.864;2023-08-01T03:11:21;37.24;32.93;40.08;;
46749;Laerm;33775;47.992;11.864;2023-08-01T03:13:47;37.22;32.93;40.33;;
46749;Laerm;33775;47.992;11.864;2023-08-01T03:16:12;37.21;32.35;39.81;;
46749;Laerm;33775;47.992;11.864;2023-08-01T03:18:37;37.24;32.93;39.70;;
46749;Laerm;33775;47.992;11.864;2023-08-01T03:21:02;37.13;32.35;39.70;;
46749;Laerm;33775;47.992;11.864;2023-08-01T03:23:29;37.13;32.93;39.92;;
46749;Laerm;33775;47.992;11.864;2023-08-01T03:25:54;37.19;32.93;39.70;;
46749;Laerm;33775;47.992;11.864;2023-08-01T03:28:19;37.14;32.35;39.92;;
46749;Laerm;33775;47.992;11.864;2023-08-01T03:30:44;37.11;32.35;39.81;;
46749;Laerm;33775;47.992;11.864;2023-08-01T03:33:10;37.10;33.44;40.23;;
46749;Laerm;33775;47.992;11.864;2023-08-01T03:35:35;37.11;32.35;40.23;;
46749;Laerm;33775;47.992;11.864;2023-08-01T03:38:00;37.06;30.89;40.53;;
46749;Laerm;33775;47.992;11.864;2023-08-01T03:40:25;37.07;31.68;39.78;;
46749;Laerm;33775;47.992;11.864;2023-08-01T03:42:50;37.03;32.35;40.03;;
46749;Laerm;33775;47.992;11.864;2023-08-01T03:45:15;37.01;32.93;39.81;;
46749;Laerm;33775;47.992;11.864;2023-08-01T03:47:41;36.94;32.35;40.03;;
46749;Laerm;33775;47.992;11.864;2023-08-01T03:50:06;36.89;32.35;39.70;;
46749;Laerm;33775;47.992;11.864;2023-08-01T03:52:31;36.86;31.68;39.58;;
46749;Laerm;33775;47.992;11.864;2023-08-01T03:54:57;36.89;32.35;39.70;;
46749;Laerm;33775;47.992;11.864;2023-08-01T03:57:22;36.90;32.93;39.70;;
46749;Laerm;33775;47.992;11.864;2023-08-01T03:59:47;36.87;30.89;39.70;;
46749;Laerm;33775;47.992;11.864;2023-08-01T04:02:12;36.82;32.35;39.68;;
46749;Laerm;33775;47.992;11.864;2023-08-01T04:04:37;36.86;32.35;40.13;;
46749;Laerm;33775;47.992;11.864;2023-08-01T04:07:03;36.86;32.35;39.58;;
46749;Laerm;33775;47.992;11.864;2023-08-01T04:09:28;36.93;32.35;39.92;;
46749;Laerm;33775;47.992;11.864;2023-08-01T04:11:53;36.91;30.89;40.43;;
46749;Laerm;33775;47.992;11.864;2023-08-01T04:14:18;36.89;32.35;39.70;;
46749;Laerm;33775;47.992;11.864;2023-08-01T04:16:44;36.87;29.92;40.03;;
46749;Laerm;33775;47.992;11.864;2023-08-01T04:19:09;36.94;32.35;39.70;;
46749;Laerm;33775;47.992;11.864;2023-08-01T04:21:34;36.95;31.68;39.92;;
46749;Laerm;33775;47.992;11.864;2023-08-01T04:24:00;36.96;31.68;39.70;;
46749;Laerm;33775;47.992;11.864;2023-08-01T04:26:25;36.95;32.93;39.92;;
46749;Laerm;33775;47.992;11.864;2023-08-01T04:28:50;36.92;32.35;39.78;;
46749;Laerm;33775;47.992;11.864;2023-08-01T04:31:15;36.92;32.35;39.92;;
46749;Laerm;33775;47.992;11.864;2023-08-01T04:33:40;36.90;31.68;39.81;;
46749;Laerm;33775;47.992;11.864;2023-08-01T04:36:06;36.81;32.35;39.92;;
46749;Laerm;33775;47.992;11.864;2023-08-01T04:38:31;36.83;30.89;39.70;;
46749;Laerm;33775;47.992;11.864;2023-08-01T04:40:56;36.83;31.68;40.62;;
46749;Laerm;33775;47.992;11.864;2023-08-01T04:43:21;36.82;31.68;39.58;;
46749;Laerm;33775;47.992;11.864;2023-08-01T04:45:47;36.81;30.89;39.58;;
46749;Laerm;33775;47.992;11.864;2023-08-01T04:48:12;36.77;31.68;39.70;;
46749;Laerm;33775;47.992;11.864;2023-08-01T04:50:37;36.76;32.35;39.58;;
46749;Laerm;33775;47.992;11.864;2023-08-01T04:53:02;36.73;30.89;39.70;;
46749;Laerm;33775;47.992;11.864;2023-08-01T04:55:28;36.67;29.92;39.58;;
46749;Laerm;33775;47.992;11.864;2023-08-01T04:57:53;36.69;29.92;39.58;;
46749;Laerm;33775;47.992;11.864;2023-08-01T05:00:18;36.73;28.67;39.92;;
46749;Laerm;33775;47.992;11.864;2023-08-01T05:02:43;36.70;30.89;39.70;;
46749;Laerm;33775;47.992;11.864;2023-08-01T05:05:08;36.70;29.92;39.81;;
46749;Laerm;33775;47.992;11.864;2023-08-01T05:07:33;36.66;30.89;39.35;;
46749;Laerm;33775;47.992;11.864;2023-08-01T05:09:59;36.65;31.68;39.81;;
46749;Laerm;33775;47.992;11.864;2023-08-01T05:12:24;36.69;29.92;39.46;;
46749;Laerm;33775;47.992;11.864;2023-08-01T05:14:49;36.71;31.68;39.46;;
46749;Laerm;33775;47.992;11.864;2023-08-01T05:17:15;36.73;28.67;39.58;;
46749;Laerm;33775;47.992;11.864;2023-08-01T05:19:40;36.69;31.68;39.92;;
46749;Laerm;33775;47.992;11.864;2023-08-01T05:22:05;36.68;28.67;39.58;;
46749;Laerm;33775;47.992;11.864;2023-08-01T05:24:30;36.67;29.92;39.21;;
46749;Laerm;33775;47.992;11.864;2023-08-01T05:26:56;36.67;30.89;39.70;;
46749;Laerm;33775;47.992;11.864;2023-08-01T05:29:21;36.68;30.89;39.58;;
46749;Laerm;33775;47.992;11.864;2023-08-01T05:31:46;36.68;30.89;39.58;;
46749;Laerm;33775;47.992;11.864;2023-08-01T05:34:11;36.67;28.67;39.58;;
46749;Laerm;33775;47.992;11.864;2023-08-01T05:36:36;36.70;29.92;39.46;;
46749;Laerm;33775;47.992;11.864;2023-08-01T05:39:02;36.71;31.68;39.46;;
46749;Laerm;33775;47.992;11.864;2023-08-01T05:41:27;36.74;30.89;39.81;;
46749;Laerm;33775;47.992;11.864;2023-08-01T05:43:52;36.76;28.67;39.46;;
46749;Laerm;33775;47.992;11.864;2023-08-01T05:46:17;36.71;29.92;39.46;;
46749;Laerm;33775;47.992;11.864;2023-08-01T05:48:42;36.74;30.89;39.81;;
46749;Laerm;33775;47.992;11.864;2023-08-01T05:51:08;36.71;30.89;39.70;;
46749;Laerm;33775;47.992;11.864;2023-08-01T05:53:33;36.76;32.35;39.58;;
46749;Laerm;33775;47.992;11.864;2023-08-01T05:55:59;36.73;29.92;39.34;;
46749;Laerm;33775;47.992;11.864;2023-08-01T05:58:24;36.69;29.92;39.58;;
46749;Laerm;33775;47.992;11.864;2023-08-01T06:00:49;36.69;29.92;39.46;;
46749;Laerm;33775;47.992;11.864;2023-08-01T06:03:14;36.71;29.92;39.58;;
46749;Laerm;33775;47.992;11.864;2023-08-01T06:05:40;36.74;30.89;39.70;;
46749;Laerm;33775;47.992;11.864;2023-08-01T06:08:06;36.72;30.89;39.34;;
46749;Laerm;33775;47.992;11.864;2023-08-01T06:10:31;36.68;29.92;39.46;;
46749;Laerm;33775;47.992;11.864;2023-08-01T06:12:56;36.74;30.54;39.58;;
46749;Laerm;33775;47.992;11.864;2023-08-01T06:15:22;36.75;29.92;39.58;;
46749;Laerm;33775;47.992;11.864;2023-08-01T06:17:47;36.76;31.68;39.70;;
46749;Laerm;33775;47.992;11.864;2023-08-01T06:20:12;36.80;26.91;39.58;;
46749;Laerm;33775;47.992;11.864;2023-08-01T06:22:38;36.78;30.89;39.58;;
46749;Laerm;33775;47.992;11.864;2023-08-01T06:25:03;36.76;29.92;39.35;;
46749;Laerm;33775;47.992;11.864;2023-08-01T06:27:28;36.77;29.92;39.35;;
46749;Laerm;33775;47.992;11.864;2023-08-01T06:29:53;36.80;29.92;39.58;;
46749;Laerm;33775;47.992;11.864;2023-08-01T06:32:18;36.76;30.89;39.58;;
46749;Laerm;33775;47.992;11.864;2023-08-01T06:34:44;36.74;30.89;39.34;;
46749;Laerm;33775;47.992;11.864;2023-08-01T06:37:09;36.76;30.54;39.81;;
46749;Laerm;33775;47.992;11.864;2023-08-01T06:39:35;36.75;30.89;39.58;;
46749;Laerm;33775;47.992;11.864;2023-08-01T06:42:00;36.75;30.89;39.92;;
46749;Laerm;33775;47.992;11.864;2023-08-01T06:44:25;36.77;31.68;39.46;;
46749;Laerm;33775;47.992;11.864;2023-08-01T06:46:50;36.76;29.92;39.58;;
46749;Laerm;33775;47.992;11.864;2023-08-01T06:49:16;36.77;30.89;39.46;;
46749;Laerm;33775;47.992;11.864;2023-08-01T06:51:41;36.77;29.92;39.81;;
46749;Laerm;33775;47.992;11.864;2023-08-01T06:54:07;36.78;29.92;39.70;;
46749;Laerm;33775;47.992;11.864;2023-08-01T06:56:33;36.74;30.89;39.58;;
46749;Laerm;33775;47.992;11.864;2023-08-01T06:58:58;36.75;29.92;39.34;;
46749;Laerm;33775;47.992;11.864;2023-08-01T07:01:23;36.75;31.68;39.70;;
46749;Laerm;33775;47.992;11.864;2023-08-01T07:03:48;36.75;30.89;39.70;;
46749;Laerm;33775;47.992;11.864;2023-08-01T07:06:16;36.77;29.92;39.70;;
46749;Laerm;33775;47.992;11.864;2023-08-01T07:08:41;36.77;28.67;39.70;;
46749;Laerm;33775;47.992;11.864;2023-08-01T07:11:06;36.74;31.68;39.92;;
46749;Laerm;33775;47.992;11.864;2023-08-01T07:13:31;36.77;30.89;39.81;;
46749;Laerm;33775;47.992;11.864;2023-08-01T07:15:56;36.78;31.68;39.58;;
46749;Laerm;33775;47.992;11.864;2023-08-01T07:18:22;36.75;30.89;39.46;;
46749;Laerm;33775;47.992;11.864;2023-08-01T07:20:47;36.77;30.89;39.46;;
46749;Laerm;33775;47.992;11.864;2023-08-01T07:23:12;36.76;30.89;39.92;;
46749;Laerm;33775;47.992;11.864;2023-08-01T07:25:37;36.80;28.67;39.34;;
46749;Laerm;33775;47.992;11.864;2023-08-01T07:28:02;36.75;31.68;39.70;;
46749;Laerm;33775;47.992;11.864;2023-08-01T07:30:28;36.75;29.92;40.03;;
46749;Laerm;33775;47.992;11.864;2023-08-01T07:32:53;36.77;29.92;39.58;;
46749;Laerm;33775;47.992;11.864;2023-08-01T07:35:19;36.79;32.00;39.58;;
46749;Laerm;33775;47.992;11.864;2023-08-01T07:37:44;36.82;31.68;39.46;;
46749;Laerm;33775;47.992;11.864;2023-08-01T07:40:09;36.80;31.68;39.58;;
46749;Laerm;33775;47.992;11.864;2023-08-01T07:42:35;36.80;31.68;39.58;;
46749;Laerm;33775;47.992;11.864;2023-08-01T07:45:00;36.84;32.35;39.70;;
46749;Laerm;33775;47.992;11.864;2023-08-01T07:47:25;36.91;31.68;39.68;;
46749;Laerm;33775;47.992;11.864;2023-08-01T07:49:51;36.96;32.35;39.46;;
46749;Laerm;33775;47.992;11.864;2023-08-01T07:52:16;37.01;32.35;39.81;;
46749;Laerm;33775;47.992;11.864;2023-08-01T07:54:41;36.93;32.35;40.03;;
46749;Laerm;33775;47.992;11.864;2023-08-01T07:57:06;36.95;31.68;39.81;;
46749;Laerm;33775;47.992;11.864;2023-08-01T07:59:31;36.95;32.35;39.58;;
46749;Laerm;33775;47.992;11.864;2023-08-01T08:01:57;36.92;32.58;40.13;;
46749;Laerm;33775;47.992;11.864;2023-08-01T08:04:22;36.91;32.35;39.81;;
46749;Laerm;33775;47.992;11.864;2023-08-01T08:06:47;36.93;31.68;39.81;;
46749;Laerm;33775;47.992;11.864;2023-08-01T08:09:12;36.97;32.93;39.81;;
46749;Laerm;33775;47.992;11.864;2023-08-01T08:11:37;36.97;32.35;40.03;;
46749;Laerm;33775;47.992;11.864;2023-08-01T08:14:03;36.99;32.93;40.03;;
46749;Laerm;33775;47.992;11.864;2023-08-01T08:16:28;37.01;31.68;39.92;;
46749;Laerm;33775;47.992;11.864;2023-08-01T08:18:53;37.04;32.35;39.70;;
46749;Laerm;33775;47.992;11.864;2023-08-01T08:21:19;37.13;32.35;39.70;;
46749;Laerm;33775;47.992;11.864;2023-08-01T08:23:44;37.20;31.68;39.58;;
46749;Laerm;33775;47.992;11.864;2023-08-01T08:26:09;37.32;32.93;39.92;;
46749;Laerm;33775;47.992;11.864;2023-08-01T08:28:34;37.31;31.68;40.03;;
46749;Laerm;33775;47.992;11.864;2023-08-01T08:31:00;37.31;33.44;40.13;;
46749;Laerm;33775;47.992;11.864;2023-08-01T08:33:26;37.40;33.44;40.13;;
46749;Laerm;33775;47.992;11.864;2023-08-01T08:35:51;37.38;33.09;40.03;;
46749;Laerm;33775;47.992;11.864;2023-08-01T08:38:17;37.37;32.35;40.80;;
46749;Laerm;33775;47.992;11.864;2023-08-01T08:40:43;37.42;32.35;40.13;;
46749;Laerm;33775;47.992;11.864;2023-08-01T08:43:13;37.40;33.44;40.23;;
46749;Laerm;33775;47.992;11.864;2023-08-01T08:45:40;37.37;32.35;40.33;;
46749;Laerm;33775;47.992;11.864;2023-08-01T08:48:10;37.38;32.93;39.92;;
46749;Laerm;33775;47.992;11.864;2023-08-01T08:50:37;37.37;33.90;40.03;;
46749;Laerm;33775;47.992;11.864;2023-08-01T08:53:02;37.40;32.93;39.92;;
46749;Laerm;33775;47.992;11.864;2023-08-01T08:55:28;37.38;33.44;40.33;;
46749;Laerm;33775;47.992;11.864;2023-08-01T08:57:54;37.42;33.44;39.92;;
46749;Laerm;33775;47.992;11.864;2023-08-01T09:00:20;37.43;32.93;39.92;;
46749;Laerm;33775;47.992;11.864;2023-08-01T09:02:45;37.46;32.35;40.53;;
46749;Laerm;33775;47.992;11.864;2023-08-01T09:05:11;37.45;33.44;40.03;;
46749;Laerm;33775;47.992;11.864;2023-08-01T09:07:38;37.43;33.90;40.62;;
46749;Laerm;33775;47.992;11.864;2023-08-01T09:10:04;37.42;32.93;40.23;;
46749;Laerm;33775;47.992;11.864;2023-08-01T09:12:31;37.46;32.93;40.13;;
46749;Laerm;33775;47.992;11.864;2023-08-01T09:14:58;37.42;33.44;39.92;;
46749;Laerm;33775;47.992;11.864;2023-08-01T09:17:23;37.42;33.44;40.43;;
46749;Laerm;33775;47.992;11.864;2023-08-01T09:19:49;37.45;33.44;40.33;;
46749;Laerm;33775;47.992;11.864;2023-08-01T09:22:19;37.40;32.93;40.13;;
46749;Laerm;33775;47.992;11.864;2023-08-01T09:24:51;37.44;33.09;40.03;;
46749;Laerm;33775;47.992;11.864;2023-08-01T09:27:16;37.44;33.44;40.62;;
46749;Laerm;33775;47.992;11.864;2023-08-01T09:29:42;37.42;32.93;40.03;;
46749;Laerm;33775;47.992;11.864;2023-08-01T09:32:13;37.43;33.09;40.23;;
46749;Laerm;33775;47.992;11.864;2023-08-01T09:34:41;37.41;32.35;40.53;;
46749;Laerm;33775;47.992;11.864;2023-08-01T09:37:08;37.39;32.35;40.03;;
46749;Laerm;33775;47.992;11.864;2023-08-01T09:39:33;37.40;33.44;40.43;;
46749;Laerm;33775;47.992;11.864;2023-08-01T09:41:59;37.43;32.93;40.62;;
46749;Laerm;33775;47.992;11.864;2023-08-01T09:44:25;37.41;32.93;39.92;;
46749;Laerm;33775;47.992;11.864;2023-08-01T09:47:01;37.45;32.93;40.03;;
46749;Laerm;33775;47.992;11.864;2023-08-01T09:49:27;37.41;31.68;40.33;;
46749;Laerm;33775;47.992;11.864;2023-08-01T09:51:52;37.38;31.68;40.43;;
46749;Laerm;33775;47.992;11.864;2023-08-01T09:54:18;37.39;32.35;40.03;;
46749;Laerm;33775;47.992;11.864;2023-08-01T09:56:47;37.40;31.68;39.92;;
46749;Laerm;33775;47.992;11.864;2023-08-01T09:59:13;37.45;31.68;39.92;;
46749;Laerm;33775;47.992;11.864;2023-08-01T10:01:41;37.41;33.44;40.13;;
46749;Laerm;33775;47.992;11.864;2023-08-01T10:04:08;37.41;32.93;40.03;;
46749;Laerm;33775;47.992;11.864;2023-08-01T10:06:37;37.41;32.93;40.43;;
46749;Laerm;33775;47.992;11.864;2023-08-01T10:09:02;37.44;33.44;40.62;;
46749;Laerm;33775;47.992;11.864;2023-08-01T10:11:33;37.45;32.93;40.13;;
46749;Laerm;33775;47.992;11.864;2023-08-01T10:13:58;37.43;32.35;40.33;;
46749;Laerm;33775;47.992;11.864;2023-08-01T10:16:24;37.38;32.35;40.43;;
46749;Laerm;33775;47.992;11.864;2023-08-01T10:18:50;37.42;32.93;40.23;;
46749;Laerm;33775;47.992;11.864;2023-08-01T10:21:16;37.42;33.90;40.08;;
46749;Laerm;33775;47.992;11.864;2023-08-01T10:23:42;37.41;32.93;39.92;;
46749;Laerm;33775;47.992;11.864;2023-08-01T10:26:08;37.38;33.44;40.13;;
46749;Laerm;33775;47.992;11.864;2023-08-01T10:28:35;37.39;32.35;40.62;;
46749;Laerm;33775;47.992;11.864;2023-08-01T10:31:11;37.42;32.93;40.53;;
46749;Laerm;33775;47.992;11.864;2023-08-01T10:33:36;37.42;33.44;40.43;;
46749;Laerm;33775;47.992;11.864;2023-08-01T10:36:11;37.44;32.35;40.36;;
46749;Laerm;33775;47.992;11.864;2023-08-01T10:38:44;37.44;32.35;40.62;;
46749;Laerm;33775;47.992;11.864;2023-08-01T10:41:17;37.37;32.93;40.43;;
46749;Laerm;33775;47.992;11.864;2023-08-01T10:43:43;37.31;32.93;40.62;;
46749;Laerm;33775;47.992;11.864;2023-08-01T10:46:08;37.20;32.35;40.23;;
46749;Laerm;33775;47.992;11.864;2023-08-01T10:48:33;37.14;32.93;40.13;;
46749;Laerm;33775;47.992;11.864;2023-08-01T10:50:58;37.20;32.93;39.92;;
46749;Laerm;33775;47.992;11.864;2023-08-01T10:53:23;37.15;32.93;40.23;;
46749;Laerm;33775;47.992;11.864;2023-08-01T10:55:49;37.15;31.68;40.03;;
46749;Laerm;33775;47.992;11.864;2023-08-01T10:58:14;37.14;31.68;40.23;;
46749;Laerm;33775;47.992;11.864;2023-08-01T11:00:41;37.14;32.35;39.70;;
46749;Laerm;33775;47.992;11.864;2023-08-01T11:03:06;37.12;32.35;39.92;;
46749;Laerm;33775;47.992;11.864;2023-08-01T11:05:31;37.12;32.93;39.92;;
46749;Laerm;33775;47.992;11.864;2023-08-01T11:07:57;37.13;32.35;39.81;;
46749;Laerm;33775;47.992;11.864;2023-08-01T11:10:24;37.22;31.68;40.23;;
46749;Laerm;33775;47.992;11.864;2023-08-01T11:12:49;37.22;32.35;40.53;;
46749;Laerm;33775;47.992;11.864;2023-08-01T11:15:15;37.28;32.35;40.53;;
46749;Laerm;33775;47.992;11.864;2023-08-01T11:17:41;37.32;32.93;39.92;;
46749;Laerm;33775;47.992;11.864;2023-08-01T11:20:10;37.34;30.89;40.23;;
46749;Laerm;33775;47.992;11.864;2023-08-01T11:22:36;37.35;32.35;40.13;;
46749;Laerm;33775;47.992;11.864;2023-08-01T11:25:02;37.28;31.68;40.23;;
46749;Laerm;33775;47.992;11.864;2023-08-01T11:27:27;37.32;33.44;40.03;;
46749;Laerm;33775;47.992;11.864;2023-08-01T11:29:53;37.30;31.68;39.81;;
46749;Laerm;33775;47.992;11.864;2023-08-01T11:32:18;37.38;32.93;40.53;;
46749;Laerm;33775;47.992;11.864;2023-08-01T11:34:45;37.39;32.35;40.23;;
46749;Laerm;33775;47.992;11.864;2023-08-01T11:37:11;37.40;32.35;40.13;;
46749;Laerm;33775;47.992;11.864;2023-08-01T11:39:36;37.40;32.93;39.89;;
46749;Laerm;33775;47.992;11.864;2023-08-01T11:42:02;37.15;31.68;40.13;;
46749;Laerm;33775;47.992;11.864;2023-08-01T11:44:28;36.85;31.68;39.92;;
46749;Laerm;33775;47.992;11.864;2023-08-01T11:46:53;37.26;33.09;39.81;;
46749;Laerm;33775;47.992;11.864;2023-08-01T11:49:18;37.37;31.68;40.36;;
46749;Laerm;33775;47.992;11.864;2023-08-01T11:51:44;37.34;33.44;39.92;;
46749;Laerm;33775;47.992;11.864;2023-08-01T11:54:10;37.29;32.35;40.13;;
46749;Laerm;33775;47.992;11.864;2023-08-01T11:56:36;37.28;33.44;40.13;;
46749;Laerm;33775;47.992;11.864;2023-08-01T11:59:07;37.23;33.44;39.92;;
46749;Laerm;33775;47.992;11.864;2023-08-01T12:01:37;37.30;33.44;40.13;;
46749;Laerm;33775;47.992;11.864;2023-08-01T12:04:02;37.26;33.44;40.13;;
46749;Laerm;33775;47.992;11.864;2023-08-01T12:06:30;37.24;31.68;40.23;;
46749;Laerm;33775;47.992;11.864;2023-08-01T12:09:05;37.32;32.35;40.03;;
46749;Laerm;33775;47.992;11.864;2023-08-01T12:11:30;37.30;31.68;40.33;;
46749;Laerm;33775;47.992;11.864;2023-08-01T12:14:01;37.34;33.44;40.03;;
46749;Laerm;33775;47.992;11.864;2023-08-01T12:16:27;37.35;33.44;40.13;;
46749;Laerm;33775;47.992;11.864;2023-08-01T12:18:52;37.36;32.93;40.03;;
46749;Laerm;33775;47.992;11.864;2023-08-01T12:21:17;37.34;33.44;39.81;;
46749;Laerm;33775;47.992;11.864;2023-08-01T12:23:43;37.40;33.44;40.62;;
46749;Laerm;33775;47.992;11.864;2023-08-01T12:26:08;37.43;33.44;40.03;;
46749;Laerm;33775;47.992;11.864;2023-08-01T12:28:33;37.44;32.35;40.71;;
46749;Laerm;33775;47.992;11.864;2023-08-01T12:30:59;37.35;33.44;40.23;;
46749;Laerm;33775;47.992;11.864;2023-08-01T12:33:24;37.35;32.93;40.23;;
46749;Laerm;33775;47.992;11.864;2023-08-01T12:35:49;37.34;31.68;40.13;;
46749;Laerm;33775;47.992;11.864;2023-08-01T12:38:14;37.31;32.58;40.33;;
46749;Laerm;33775;47.992;11.864;2023-08-01T12:40:40;37.29;32.35;40.13;;
46749;Laerm;33775;47.992;11.864;2023-08-01T12:43:05;37.27;32.35;40.53;;
46749;Laerm;33775;47.992;11.864;2023-08-01T12:45:30;37.27;32.93;40.43;;
46749;Laerm;33775;47.992;11.864;2023-08-01T12:47:56;37.40;32.93;40.43;;
46749;Laerm;33775;47.992;11.864;2023-08-01T12:50:21;37.32;32.35;40.23;;
46749;Laerm;33775;47.992;11.864;2023-08-01T12:52:47;37.38;33.44;40.13;;
46749;Laerm;33775;47.992;11.864;2023-08-01T12:55:12;37.37;32.35;40.13;;
46749;Laerm;33775;47.992;11.864;2023-08-01T12:57:37;37.40;32.35;40.33;;
46749;Laerm;33775;47.992;11.864;2023-08-01T13:00:02;37.43;31.68;40.23;;
46749;Laerm;33775;47.992;11.864;2023-08-01T13:02:28;37.36;32.93;40.33;;
46749;Laerm;33775;47.992;11.864;2023-08-01T13:04:53;37.35;32.93;40.23;;
46749;Laerm;33775;47.992;11.864;2023-08-01T13:07:18;37.37;32.93;40.27;;
46749;Laerm;33775;47.992;11.864;2023-08-01T13:09:43;37.35;32.35;39.92;;
46749;Laerm;33775;47.992;11.864;2023-08-01T13:12:08;37.29;32.93;40.43;;
46749;Laerm;33775;47.992;11.864;2023-08-01T13:14:34;37.29;32.35;39.92;;
46749;Laerm;33775;47.992;11.864;2023-08-01T13:16:59;37.29;32.35;39.92;;
46749;Laerm;33775;47.992;11.864;2023-08-01T13:19:24;37.25;32.35;40.13;;
46749;Laerm;33775;47.992;11.864;2023-08-01T13:21:49;37.24;32.93;40.23;;
46749;Laerm;33775;47.992;11.864;2023-08-01T13:24:15;37.23;32.93;40.23;;